Main page
METAR-TAF:

METAR-TAF

Airports :

Canoas Air Force Base

Porto Alegre, Rio Grande do Sul, Brazil

latitude: 30-01S, longitude: 051-13W, elevation: 47 m

Current weather observation

The report was made 6 hours and 8 minutes ago, at 00:00 UTC
Wind 8 kt from the East/Southeast
Temperature 19°C
Humidity 73%
Pressure 1020 hPa
Visibility 10 km or more
Broken clouds at a height of 3300 ft

METAR: SBCO 240000Z 12008KT 9999 BKN033 19/14 Q1020

Time: 04:08 (06:08 UTC)

Forecast

The report was made 7 hours and 38 minutes ago, at 22:30 UTC
Forecast valid from 24 at 00 UTC to 24 at 12 UTC
Wind 10 kt from the Southeast
Visibility 10 km or more
Broken clouds at a height of 3000 ft

TAF: SBCO 232230Z 2400/2412 13010KT 9999 BKN030 TX18/2400Z TN16/2408Z RMK PEB

Weather observations and forecasts of more than 4000 airports (METAR and TAF reports).

The available stations are represented by yellow and red dots on the map.

Hover mouse over dot to see the name of the station.

Then click to see weather observations and forecasts.

To change the map : click on the green buttons with a black cross to zoom in, on the green button with a dash to zoom out, or on the green arrows for adjacent maps.


METAR-TAF: